createdAt,value
2023-08-07T00:00:30.186Z,15.09
2023-08-07T00:01:30.214Z,15.06
2023-08-07T00:02:30.138Z,15.03
2023-08-07T00:03:30.163Z,15.06
2023-08-07T00:04:30.060Z,15.06
2023-08-07T00:05:30.067Z,15.09
2023-08-07T00:06:30.077Z,15.07
2023-08-07T00:07:29.975Z,15.09
2023-08-07T00:08:29.961Z,15.09
2023-08-07T00:09:29.980Z,15.14
2023-08-07T00:10:29.883Z,15.07
2023-08-07T00:11:29.859Z,15.04
2023-08-07T00:12:29.828Z,15.10
2023-08-07T00:13:29.790Z,15.06
2023-08-07T00:14:29.754Z,15.15
2023-08-07T00:15:29.816Z,15.14
2023-08-07T00:16:29.697Z,15.10
2023-08-07T00:17:29.698Z,15.10
2023-08-07T00:18:30.347Z,15.10
2023-08-07T00:19:29.610Z,15.09
2023-08-07T00:20:29.571Z,15.06
2023-08-07T00:21:29.604Z,15.09
2023-08-07T00:22:29.511Z,15.09
2023-08-07T00:23:29.487Z,14.99
2023-08-07T00:24:29.454Z,15.09
2023-08-07T00:25:29.437Z,15.04
2023-08-07T00:26:29.389Z,15.09
2023-08-07T00:27:29.410Z,15.10
2023-08-07T00:28:29.362Z,15.03
2023-08-07T00:29:29.319Z,14.99
2023-08-07T00:30:29.263Z,15.04
2023-08-07T00:31:29.337Z,15.03
2023-08-07T00:32:29.241Z,15.03
2023-08-07T00:33:29.231Z,15.06
2023-08-07T00:34:29.161Z,15.06
2023-08-07T00:35:29.113Z,14.99
2023-08-07T00:36:29.080Z,15.02
2023-08-07T00:37:29.056Z,15.04
2023-08-07T00:38:29.029Z,15.04
2023-08-07T00:39:29.054Z,15.03
2023-08-07T00:40:28.951Z,15.06
2023-08-07T00:41:28.927Z,15.03
2023-08-07T00:42:28.903Z,15.06
2023-08-07T00:43:29.478Z,14.92
2023-08-07T00:44:28.838Z,15.06
2023-08-07T00:45:28.857Z,14.94
2023-08-07T00:46:28.778Z,14.96
2023-08-07T00:47:28.769Z,15.06
2023-08-07T00:48:28.706Z,14.92
2023-08-07T00:49:28.678Z,14.99
2023-08-07T00:50:41.635Z,15.09
2023-08-07T00:51:28.680Z,15.09
2023-08-07T00:52:28.652Z,14.96
2023-08-07T00:53:28.559Z,15.02
2023-08-07T00:54:28.523Z,15.09
2023-08-07T00:55:28.500Z,14.96
2023-08-07T00:56:28.573Z,15.04
2023-08-07T00:57:28.449Z,14.92
2023-08-07T00:58:28.400Z,15.04
2023-08-07T00:59:28.384Z,14.88
2023-08-07T01:00:28.349Z,15.00
2023-08-07T01:01:28.423Z,14.94
2023-08-07T01:02:28.548Z,15.03
2023-08-07T01:03:28.260Z,14.97
2023-08-07T01:04:28.213Z,14.96
2023-08-07T01:05:28.190Z,15.02
2023-08-07T01:06:28.248Z,14.94
2023-08-07T01:07:28.134Z,14.92
2023-08-07T01:08:28.104Z,14.96
2023-08-07T01:09:28.062Z,15.03
2023-08-07T01:10:28.039Z,14.96
2023-08-07T01:11:28.003Z,14.99
2023-08-07T01:12:28.060Z,15.02
2023-08-07T01:13:27.941Z,14.96
2023-08-07T01:14:27.912Z,14.94
2023-08-07T01:15:27.873Z,14.96
2023-08-07T01:16:27.976Z,14.92
2023-08-07T01:17:27.968Z,15.02
2023-08-07T01:18:27.871Z,15.00
2023-08-07T01:19:27.754Z,14.99
2023-08-07T01:20:27.767Z,15.04
2023-08-07T01:21:27.726Z,15.06
2023-08-07T01:22:27.676Z,15.04
2023-08-07T01:23:27.631Z,15.00
2023-08-07T01:24:27.660Z,14.97
2023-08-07T01:25:27.568Z,15.03
2023-08-07T01:26:27.552Z,15.02
2023-08-07T01:27:27.506Z,15.03
2023-08-07T01:28:27.488Z,15.03
2023-08-07T01:29:27.510Z,15.02
2023-08-07T01:30:27.435Z,15.14
2023-08-07T01:31:27.386Z,15.04
2023-08-07T01:32:27.402Z,15.21
2023-08-07T01:33:27.447Z,15.06
2023-08-07T01:34:27.298Z,15.10
2023-08-07T01:35:27.341Z,15.09
2023-08-07T01:36:27.243Z,15.09
2023-08-07T01:37:27.207Z,15.10
2023-08-07T01:38:27.170Z,15.10
2023-08-07T01:39:27.140Z,15.06
2023-08-07T01:40:27.121Z,15.04
2023-08-07T01:41:27.130Z,15.14
2023-08-07T01:42:27.109Z,15.14
2023-08-07T01:43:27.014Z,15.11
2023-08-07T01:44:26.990Z,15.14
2023-08-07T01:45:27.048Z,15.14
2023-08-07T01:46:26.965Z,15.14
2023-08-07T01:47:27.015Z,15.22
2023-08-07T01:48:27.252Z,15.18
2023-08-07T01:49:26.831Z,15.24
2023-08-07T01:50:26.816Z,15.22
2023-08-07T01:51:26.782Z,15.17
2023-08-07T01:52:26.762Z,15.18
2023-08-07T01:53:26.792Z,15.18
2023-08-07T01:54:26.689Z,15.21
2023-08-07T01:55:26.657Z,15.22
2023-08-07T01:56:26.625Z,15.19
2023-08-07T01:57:26.599Z,15.15
2023-08-07T01:58:26.652Z,15.14
2023-08-07T01:59:26.527Z,15.18
2023-08-07T02:00:26.531Z,15.19
2023-08-07T02:01:26.502Z,15.14
2023-08-07T02:02:26.469Z,15.17
2023-08-07T02:03:26.637Z,15.11
2023-08-07T02:04:26.392Z,15.14
2023-08-07T02:05:26.339Z,15.15
2023-08-07T02:06:26.315Z,15.10
2023-08-07T02:07:26.280Z,15.07
2023-08-07T02:08:26.252Z,15.10
2023-08-07T02:09:26.286Z,15.10
2023-08-07T02:10:26.989Z,15.04
2023-08-07T02:11:26.154Z,15.04
2023-08-07T02:12:26.137Z,15.09
2023-08-07T02:13:26.092Z,15.02
2023-08-07T02:14:26.134Z,15.14
2023-08-07T02:15:26.055Z,15.10
2023-08-07T02:16:26.031Z,15.14
2023-08-07T02:17:26.002Z,15.17
2023-08-07T02:18:25.956Z,15.17
2023-08-07T02:19:25.980Z,15.15
2023-08-07T02:20:25.954Z,15.24
2023-08-07T02:21:25.855Z,15.21
2023-08-07T02:22:25.827Z,15.21
2023-08-07T02:23:25.804Z,15.24
2023-08-07T02:24:25.789Z,15.21
2023-08-07T02:25:25.727Z,15.14
2023-08-07T02:26:25.761Z,15.24
2023-08-07T02:27:25.665Z,15.17
2023-08-07T02:28:25.640Z,15.15
2023-08-07T02:29:25.853Z,15.11
2023-08-07T02:30:25.648Z,15.15
2023-08-07T02:31:25.556Z,15.17
2023-08-07T02:32:25.545Z,15.24
2023-08-07T02:33:25.487Z,15.21
2023-08-07T02:34:25.466Z,15.24
2023-08-07T02:35:25.466Z,15.15
2023-08-07T02:36:25.448Z,15.31
2023-08-07T02:37:25.368Z,15.22
2023-08-07T02:38:25.332Z,15.35
2023-08-07T02:39:25.291Z,15.31
2023-08-07T02:40:25.278Z,15.28
2023-08-07T02:41:25.248Z,15.31
2023-08-07T02:42:25.269Z,15.33
2023-08-07T02:43:25.180Z,15.31
2023-08-07T02:44:25.152Z,15.35
2023-08-07T02:45:25.109Z,15.31
2023-08-07T02:46:25.140Z,15.33
2023-08-07T02:47:25.063Z,15.36
2023-08-07T02:48:25.110Z,15.44
2023-08-07T02:49:24.997Z,15.39
2023-08-07T02:50:24.954Z,15.33
2023-08-07T02:51:25.498Z,15.37
2023-08-07T02:52:24.894Z,15.31
2023-08-07T02:53:24.865Z,15.27
2023-08-07T02:54:25.529Z,15.28
2023-08-07T02:55:24.942Z,15.36
2023-08-07T02:56:25.445Z,15.24
2023-08-07T02:57:25.497Z,15.33
2023-08-07T02:58:25.445Z,15.29
2023-08-07T02:59:24.682Z,15.22
2023-08-07T03:00:24.728Z,15.24
2023-08-07T03:01:24.659Z,15.22
2023-08-07T03:02:24.701Z,15.17
2023-08-07T03:03:24.555Z,15.22
2023-08-07T03:04:24.528Z,15.19
2023-08-07T03:05:24.514Z,15.24
2023-08-07T03:06:24.561Z,15.21
2023-08-07T03:07:24.434Z,15.21
2023-08-07T03:08:24.404Z,15.19
2023-08-07T03:09:24.381Z,15.24
2023-08-07T03:10:26.752Z,15.19
2023-08-07T03:11:24.318Z,15.19
2023-08-07T03:12:24.335Z,15.19
2023-08-07T03:13:24.272Z,15.14
2023-08-07T03:14:24.226Z,15.19
2023-08-07T03:15:24.183Z,15.14
2023-08-07T03:16:24.200Z,15.15
2023-08-07T03:17:24.197Z,15.17
2023-08-07T03:18:24.097Z,15.21
2023-08-07T03:19:24.070Z,15.24
2023-08-07T03:20:24.033Z,15.19
2023-08-07T03:21:24.003Z,15.27
2023-08-07T03:22:24.027Z,15.24
2023-08-07T03:23:23.939Z,15.18
2023-08-07T03:24:23.931Z,15.18
2023-08-07T03:25:23.903Z,15.19
2023-08-07T03:26:23.902Z,15.24
2023-08-07T03:27:23.896Z,15.22
2023-08-07T03:28:23.798Z,15.21
2023-08-07T03:29:23.755Z,15.22
2023-08-07T03:30:23.731Z,15.27
2023-08-07T03:31:23.727Z,15.21
2023-08-07T03:32:23.691Z,15.24
2023-08-07T03:33:23.685Z,15.21
2023-08-07T03:34:23.621Z,15.25
2023-08-07T03:35:23.565Z,15.21
2023-08-07T03:36:23.549Z,15.21
2023-08-07T03:37:23.507Z,15.17
2023-08-07T03:38:23.549Z,15.18
2023-08-07T03:39:23.507Z,15.19
2023-08-07T03:40:23.418Z,15.24
2023-08-07T03:41:23.380Z,15.21
2023-08-07T03:42:23.378Z,15.15
2023-08-07T03:43:23.324Z,15.17
2023-08-07T03:44:23.352Z,15.19
2023-08-07T03:45:23.294Z,15.21
2023-08-07T03:46:23.320Z,15.17
2023-08-07T03:47:23.208Z,15.17
2023-08-07T03:48:24.000Z,15.22
2023-08-07T03:49:23.576Z,15.22
2023-08-07T03:50:25.902Z,15.29
2023-08-07T03:51:23.110Z,15.24
2023-08-07T03:52:24.022Z,15.19
2023-08-07T03:53:23.907Z,15.19
2023-08-07T03:54:24.906Z,15.18
2023-08-07T03:55:23.083Z,15.14
2023-08-07T03:56:23.025Z,15.19
2023-08-07T03:57:22.888Z,15.19
2023-08-07T03:58:22.865Z,15.10
2023-08-07T03:59:22.826Z,15.11
2023-08-07T04:00:22.803Z,15.07
2023-08-07T04:01:22.851Z,15.10
2023-08-07T04:02:22.772Z,15.10
2023-08-07T04:03:22.724Z,15.09
2023-08-07T04:04:22.733Z,15.06
2023-08-07T04:05:22.654Z,15.17
2023-08-07T04:06:22.617Z,15.04
2023-08-07T04:07:22.631Z,15.06
2023-08-07T04:08:22.556Z,15.09
2023-08-07T04:09:22.530Z,15.06
2023-08-07T04:10:22.512Z,15.10
2023-08-07T04:11:22.464Z,15.04
2023-08-07T04:12:22.424Z,15.21
2023-08-07T04:13:22.518Z,15.21
2023-08-07T04:14:22.383Z,15.29
2023-08-07T04:15:22.333Z,15.31
2023-08-07T04:16:22.303Z,15.33
2023-08-07T04:17:22.358Z,15.22
2023-08-07T04:18:22.238Z,15.21
2023-08-07T04:19:22.264Z,15.25
2023-08-07T04:20:22.191Z,15.21
2023-08-07T04:21:22.175Z,15.22
2023-08-07T04:22:23.016Z,15.25
2023-08-07T04:23:23.418Z,15.31
2023-08-07T04:24:22.057Z,15.17
2023-08-07T04:25:22.097Z,15.35
2023-08-07T04:26:21.996Z,15.29
2023-08-07T04:27:21.969Z,15.25
2023-08-07T04:28:21.951Z,15.33
2023-08-07T04:29:21.907Z,15.28
2023-08-07T04:30:21.880Z,15.33
2023-08-07T04:31:21.942Z,15.35
2023-08-07T04:32:22.500Z,15.31
2023-08-07T04:33:21.794Z,15.31
2023-08-07T04:34:21.755Z,15.29
2023-08-07T04:35:21.721Z,15.35
2023-08-07T04:36:21.689Z,15.35
2023-08-07T04:37:21.719Z,15.35
2023-08-07T04:38:21.628Z,15.36
2023-08-07T04:39:21.601Z,15.33
2023-08-07T04:40:21.560Z,15.27
2023-08-07T04:41:21.536Z,15.31
2023-08-07T04:42:21.500Z,15.31
2023-08-07T04:43:22.098Z,15.33
2023-08-07T04:44:21.456Z,15.33
2023-08-07T04:45:21.413Z,15.29
2023-08-07T04:46:21.424Z,15.33
2023-08-07T04:47:21.417Z,15.37
2023-08-07T04:48:21.324Z,15.28
2023-08-07T04:49:21.352Z,15.39
2023-08-07T04:50:21.261Z,15.46
2023-08-07T04:51:21.230Z,15.52
2023-08-07T04:52:26.457Z,15.43
2023-08-07T04:53:21.172Z,15.46
2023-08-07T04:54:21.136Z,15.28
2023-08-07T04:55:21.180Z,15.42
2023-08-07T04:56:21.131Z,15.36
2023-08-07T04:57:21.051Z,15.39
2023-08-07T04:58:21.046Z,15.37
2023-08-07T04:59:20.986Z,15.43
2023-08-07T05:00:20.949Z,15.42
2023-08-07T05:01:21.083Z,15.49
2023-08-07T05:02:20.941Z,15.47
2023-08-07T05:03:20.923Z,15.44
2023-08-07T05:04:20.833Z,15.44
2023-08-07T05:05:20.803Z,15.43
2023-08-07T05:06:20.767Z,15.49
2023-08-07T05:07:20.799Z,15.46
2023-08-07T05:08:20.704Z,15.44
2023-08-07T05:09:20.682Z,15.39
2023-08-07T05:10:20.674Z,15.40
2023-08-07T05:11:20.622Z,15.51
2023-08-07T05:12:20.631Z,15.47
2023-08-07T05:13:20.604Z,15.46
2023-08-07T05:14:20.521Z,15.51
2023-08-07T05:15:20.508Z,15.58
2023-08-07T05:16:20.540Z,15.61
2023-08-07T05:17:20.444Z,15.65
2023-08-07T05:18:20.448Z,15.65
2023-08-07T05:19:20.374Z,15.68
2023-08-07T05:20:20.372Z,15.75
2023-08-07T05:21:20.311Z,15.73
2023-08-07T05:22:20.283Z,15.76
2023-08-07T05:23:20.321Z,15.88
2023-08-07T05:24:20.222Z,15.90
2023-08-07T05:25:20.196Z,15.97
2023-08-07T05:26:20.159Z,15.97
2023-08-07T05:27:20.129Z,16.09
2023-08-07T05:28:20.166Z,16.26
2023-08-07T05:29:20.074Z,16.24
2023-08-07T05:30:20.033Z,16.28
2023-08-07T05:31:20.049Z,16.29
2023-08-07T05:32:19.974Z,16.38
2023-08-07T05:33:20.015Z,16.41
2023-08-07T05:34:19.914Z,16.49
2023-08-07T05:35:19.889Z,16.47
2023-08-07T05:36:19.858Z,16.50
2023-08-07T05:37:19.842Z,16.51
2023-08-07T05:38:19.841Z,16.72
2023-08-07T05:39:19.931Z,16.69
2023-08-07T05:40:19.735Z,16.71
2023-08-07T05:41:19.713Z,16.86
2023-08-07T05:42:19.673Z,16.90
2023-08-07T05:43:19.656Z,16.94
2023-08-07T05:44:19.616Z,16.97
2023-08-07T05:45:19.642Z,16.97
2023-08-07T05:46:19.614Z,17.11
2023-08-07T05:47:19.576Z,17.08
2023-08-07T05:48:19.498Z,17.22
2023-08-07T05:49:19.477Z,17.34
2023-08-07T05:50:19.438Z,17.45
2023-08-07T05:51:19.470Z,17.59
2023-08-07T05:52:19.378Z,17.57
2023-08-07T05:53:19.370Z,17.67
2023-08-07T05:54:19.322Z,17.59
2023-08-07T05:55:19.295Z,17.64
2023-08-07T05:56:19.286Z,17.70
2023-08-07T05:57:19.314Z,17.79
2023-08-07T05:58:19.209Z,17.72
2023-08-07T05:59:19.188Z,17.67
2023-08-07T06:00:19.148Z,17.74
2023-08-07T06:01:19.222Z,17.67
2023-08-07T06:02:19.087Z,17.79
2023-08-07T06:03:19.120Z,17.87
2023-08-07T06:04:19.114Z,17.92
2023-08-07T06:05:19.004Z,17.89
2023-08-07T06:06:18.974Z,17.90
2023-08-07T06:07:18.957Z,17.87
2023-08-07T06:08:18.910Z,17.83
2023-08-07T06:09:18.946Z,17.79
2023-08-07T06:10:18.859Z,17.89
2023-08-07T06:11:18.846Z,17.94
2023-08-07T06:12:18.799Z,17.94
2023-08-07T06:13:30.519Z,17.92
2023-08-07T06:14:18.746Z,17.94
2023-08-07T06:15:19.555Z,17.97
2023-08-07T06:16:18.720Z,18.00
2023-08-07T06:17:18.717Z,18.05
2023-08-07T06:18:18.637Z,18.11
2023-08-07T06:19:30.578Z,17.89
2023-08-07T06:20:18.587Z,17.94
2023-08-07T06:21:18.544Z,17.97
2023-08-07T06:22:18.601Z,17.95
2023-08-07T06:23:18.485Z,17.89
2023-08-07T06:24:18.460Z,17.80
2023-08-07T06:25:18.434Z,17.78
2023-08-07T06:26:18.399Z,17.90
2023-08-07T06:27:18.466Z,17.95
2023-08-07T06:28:18.352Z,17.92
2023-08-07T06:29:18.320Z,18.01
2023-08-07T06:30:18.286Z,18.13
2023-08-07T06:31:18.263Z,18.10
2023-08-07T06:32:18.279Z,18.07
2023-08-07T06:33:18.261Z,18.19
2023-08-07T06:34:18.173Z,18.07
2023-08-07T06:35:18.158Z,18.16
2023-08-07T06:36:18.130Z,18.25
2023-08-07T06:37:18.095Z,18.34
2023-08-07T06:38:18.085Z,18.40
2023-08-07T06:39:18.098Z,18.26
2023-08-07T06:40:18.013Z,18.29
2023-08-07T06:41:17.985Z,18.44
2023-08-07T06:42:17.944Z,18.35
2023-08-07T06:43:17.929Z,18.47
2023-08-07T06:44:17.887Z,18.44
2023-08-07T06:45:17.927Z,18.56
2023-08-07T06:46:17.888Z,18.66
2023-08-07T06:47:17.809Z,18.62
2023-08-07T06:48:17.773Z,18.88
2023-08-07T06:49:17.752Z,18.96
2023-08-07T06:50:17.904Z,18.78
2023-08-07T06:51:17.757Z,18.86
2023-08-07T06:52:17.667Z,18.90
2023-08-07T06:53:18.582Z,18.99
2023-08-07T06:54:17.626Z,18.95
2023-08-07T06:55:18.589Z,18.77
2023-08-07T06:56:18.507Z,18.78
2023-08-07T06:57:18.521Z,18.89
2023-08-07T06:58:17.505Z,18.90
2023-08-07T06:59:17.477Z,18.77
2023-08-07T07:00:17.482Z,18.74
2023-08-07T07:01:17.499Z,18.77
2023-08-07T07:02:17.386Z,18.99
2023-08-07T07:03:17.431Z,19.08
2023-08-07T07:04:17.328Z,19.11
2023-08-07T07:05:18.311Z,19.14
2023-08-07T07:06:17.278Z,19.11
2023-08-07T07:07:17.256Z,19.14
2023-08-07T07:08:17.236Z,19.16
2023-08-07T07:09:17.313Z,19.15
2023-08-07T07:10:17.188Z,18.93
2023-08-07T07:11:17.190Z,19.02
2023-08-07T07:12:17.120Z,19.09
2023-08-07T07:13:17.085Z,19.15
2023-08-07T07:14:17.064Z,19.14
2023-08-07T07:15:17.080Z,18.99
2023-08-07T07:16:17.020Z,18.99
2023-08-07T07:17:16.967Z,18.98
2023-08-07T07:18:16.948Z,19.15
2023-08-07T07:19:16.917Z,19.22
2023-08-07T07:20:16.894Z,19.33
2023-08-07T07:21:16.918Z,19.45
2023-08-07T07:22:16.847Z,19.37
2023-08-07T07:23:16.807Z,19.36
2023-08-07T07:24:16.783Z,19.41
2023-08-07T07:25:16.749Z,19.39
2023-08-07T07:26:16.737Z,19.33
2023-08-07T07:27:16.783Z,19.33
2023-08-07T07:28:16.676Z,19.37
2023-08-07T07:29:16.644Z,19.22
2023-08-07T07:30:16.687Z,19.12
2023-08-07T07:31:16.612Z,19.09
2023-08-07T07:32:16.588Z,19.02
2023-08-07T07:33:16.588Z,19.16
2023-08-07T07:34:16.513Z,19.44
2023-08-07T07:35:16.475Z,19.54
2023-08-07T07:36:16.469Z,19.48
2023-08-07T07:37:16.423Z,19.44
2023-08-07T07:38:16.434Z,19.44
2023-08-07T07:39:16.446Z,19.54
2023-08-07T07:40:16.346Z,19.39
2023-08-07T07:41:16.321Z,19.41
2023-08-07T07:42:16.300Z,19.47
2023-08-07T07:43:16.270Z,19.48
2023-08-07T07:44:16.242Z,19.56
2023-08-07T07:45:16.271Z,19.70
2023-08-07T07:46:16.187Z,19.70
2023-08-07T07:47:16.162Z,19.67
2023-08-07T07:48:16.139Z,19.64
2023-08-07T07:49:16.210Z,19.55
2023-08-07T07:50:16.591Z,19.44
2023-08-07T07:51:16.162Z,19.48
2023-08-07T07:52:16.055Z,19.44
2023-08-07T07:53:16.638Z,19.48
2023-08-07T07:54:16.728Z,19.51
2023-08-07T07:55:16.690Z,19.66
2023-08-07T07:56:17.492Z,19.67
2023-08-07T07:57:16.483Z,19.74
2023-08-07T07:58:15.908Z,19.94
2023-08-07T07:59:15.828Z,19.94
2023-08-07T08:00:15.814Z,19.95
2023-08-07T08:01:15.774Z,20.00
2023-08-07T08:02:15.754Z,20.09
2023-08-07T08:03:15.830Z,20.25
2023-08-07T08:04:15.788Z,20.37
2023-08-07T08:05:15.682Z,20.60
2023-08-07T08:06:15.654Z,20.63
2023-08-07T08:07:15.706Z,20.39
2023-08-07T08:08:15.601Z,20.37
2023-08-07T08:09:15.616Z,20.31
2023-08-07T08:10:15.576Z,20.24
2023-08-07T08:11:15.513Z,20.22
2023-08-07T08:12:15.510Z,20.10
2023-08-07T08:13:15.984Z,20.16
2023-08-07T08:14:15.480Z,20.22
2023-08-07T08:15:15.456Z,20.10
2023-08-07T08:16:15.429Z,19.95
2023-08-07T08:17:16.114Z,19.99
2023-08-07T08:18:15.345Z,19.82
2023-08-07T08:19:15.333Z,19.81
2023-08-07T08:20:16.104Z,19.95
2023-08-07T08:21:15.669Z,20.03
2023-08-07T08:22:16.103Z,20.09
2023-08-07T08:23:16.103Z,20.14
2023-08-07T08:24:16.113Z,20.11
2023-08-07T08:25:15.999Z,20.13
2023-08-07T08:26:16.101Z,20.13
2023-08-07T08:27:16.121Z,20.24
2023-08-07T08:28:15.995Z,20.41
2023-08-07T08:29:16.500Z,20.55
2023-08-07T08:30:15.585Z,20.40
2023-08-07T08:31:15.009Z,20.26
2023-08-07T08:32:14.972Z,20.10
2023-08-07T08:33:14.982Z,20.10
2023-08-07T08:34:14.922Z,20.02
2023-08-07T08:35:14.912Z,19.91
2023-08-07T08:36:15.504Z,20.13
2023-08-07T08:37:14.862Z,20.06
2023-08-07T08:38:14.801Z,20.06
2023-08-07T08:39:15.226Z,19.88
2023-08-07T08:40:14.749Z,19.71
2023-08-07T08:41:14.711Z,19.82
2023-08-07T08:42:14.719Z,19.95
2023-08-07T08:43:14.663Z,20.16
2023-08-07T08:44:14.642Z,20.52
2023-08-07T08:45:14.706Z,20.72
2023-08-07T08:46:14.613Z,20.81
2023-08-07T08:47:14.549Z,20.70
2023-08-07T08:48:14.536Z,20.74
2023-08-07T08:49:14.505Z,20.74
2023-08-07T08:50:15.549Z,20.67
2023-08-07T08:51:14.509Z,20.58
2023-08-07T08:52:14.430Z,20.55
2023-08-07T08:53:14.400Z,20.28
2023-08-07T08:54:14.380Z,20.13
2023-08-07T08:55:14.349Z,20.14
2023-08-07T08:56:14.324Z,20.16
2023-08-07T08:57:14.354Z,20.18
2023-08-07T08:58:14.262Z,20.25
2023-08-07T08:59:14.268Z,20.39
2023-08-07T09:00:14.255Z,20.40
2023-08-07T09:01:15.169Z,20.62
2023-08-07T09:02:15.068Z,20.84
2023-08-07T09:03:17.097Z,20.84
2023-08-07T09:04:14.139Z,20.93
2023-08-07T09:05:14.080Z,21.12
2023-08-07T09:06:14.057Z,21.15
2023-08-07T09:07:14.026Z,21.07
2023-08-07T09:08:14.005Z,21.21
2023-08-07T09:09:14.027Z,21.12
2023-08-07T09:10:13.974Z,21.12
2023-08-07T09:11:13.942Z,21.21
2023-08-07T09:12:13.908Z,21.21
2023-08-07T09:13:13.869Z,21.21
2023-08-07T09:14:13.853Z,21.40
2023-08-07T09:15:13.904Z,21.36
2023-08-07T09:16:13.879Z,21.37
2023-08-07T09:17:13.769Z,21.42
2023-08-07T09:18:13.805Z,21.30
2023-08-07T09:19:13.791Z,21.40
2023-08-07T09:20:13.698Z,21.50
2023-08-07T09:21:13.665Z,21.32
2023-08-07T09:22:13.645Z,21.18
2023-08-07T09:23:13.613Z,21.05
2023-08-07T09:24:13.602Z,21.12
2023-08-07T09:25:13.620Z,21.14
2023-08-07T09:26:14.147Z,21.05
2023-08-07T09:27:13.531Z,21.02
2023-08-07T09:28:13.498Z,20.87
2023-08-07T09:29:13.455Z,20.65
2023-08-07T09:30:14.044Z,20.55
2023-08-07T09:31:13.507Z,20.62
2023-08-07T09:32:13.398Z,20.66
2023-08-07T09:33:13.418Z,20.80
2023-08-07T09:34:13.342Z,21.00
2023-08-07T09:35:14.016Z,21.22
2023-08-07T09:36:13.286Z,21.36
2023-08-07T09:37:13.351Z,21.54
2023-08-07T09:38:13.275Z,21.57
2023-08-07T09:39:13.200Z,21.48
2023-08-07T09:40:13.240Z,21.35
2023-08-07T09:41:13.157Z,21.36
2023-08-07T09:42:13.218Z,21.43
2023-08-07T09:43:13.149Z,21.51
2023-08-07T09:44:13.090Z,21.57
2023-08-07T09:45:13.057Z,21.62
2023-08-07T09:46:13.036Z,21.45
2023-08-07T09:47:12.999Z,21.55
2023-08-07T09:48:13.031Z,21.58
2023-08-07T09:49:13.635Z,21.58
2023-08-07T09:50:12.953Z,21.51
2023-08-07T09:51:13.628Z,21.70
2023-08-07T09:52:13.145Z,21.70
2023-08-07T09:53:13.523Z,21.69
2023-08-07T09:54:12.891Z,21.73
2023-08-07T09:55:12.798Z,21.83
2023-08-07T09:56:12.778Z,21.92
2023-08-07T09:57:12.746Z,22.08
2023-08-07T09:58:12.736Z,22.08
2023-08-07T09:59:12.690Z,21.99
2023-08-07T10:00:12.739Z,21.85
2023-08-07T10:01:12.694Z,21.93
2023-08-07T10:02:12.751Z,21.95
2023-08-07T10:03:12.644Z,21.91
2023-08-07T10:04:13.141Z,21.85
2023-08-07T10:05:12.547Z,22.02
2023-08-07T10:06:12.748Z,22.11
2023-08-07T10:07:12.492Z,22.26
2023-08-07T10:08:12.474Z,22.18
2023-08-07T10:09:12.451Z,22.18
2023-08-07T10:10:12.467Z,22.13
2023-08-07T10:11:12.402Z,22.26
2023-08-07T10:12:12.434Z,22.33
2023-08-07T10:13:12.354Z,22.41
2023-08-07T10:14:12.334Z,22.39
2023-08-07T10:15:12.301Z,22.53
2023-08-07T10:16:12.292Z,22.69
2023-08-07T10:17:12.261Z,22.80
2023-08-07T10:18:12.468Z,22.94
2023-08-07T10:19:12.202Z,22.84
2023-08-07T10:20:12.173Z,22.83
2023-08-07T10:21:12.164Z,22.85
2023-08-07T10:22:12.122Z,22.90
2023-08-07T10:23:12.109Z,22.69
2023-08-07T10:24:12.188Z,22.66
2023-08-07T10:25:12.066Z,22.43
2023-08-07T10:26:12.029Z,22.17
2023-08-07T10:27:12.006Z,22.26
2023-08-07T10:28:11.978Z,22.25
2023-08-07T10:29:11.960Z,22.25
2023-08-07T10:30:12.012Z,22.04
2023-08-07T10:31:11.924Z,22.06
2023-08-07T10:32:11.907Z,22.15
2023-08-07T10:33:11.865Z,22.14
2023-08-07T10:34:11.922Z,22.10
2023-08-07T10:35:11.810Z,22.04
2023-08-07T10:36:16.164Z,22.04
2023-08-07T10:37:11.766Z,22.11
2023-08-07T10:38:11.822Z,22.18
2023-08-07T10:39:11.722Z,22.15
2023-08-07T10:40:11.701Z,21.82
2023-08-07T10:41:11.697Z,21.76
2023-08-07T10:42:12.545Z,21.73
2023-08-07T10:43:11.612Z,21.58
2023-08-07T10:44:11.726Z,21.50
2023-08-07T10:45:11.568Z,21.58
2023-08-07T10:46:12.594Z,21.24
2023-08-07T10:47:11.550Z,21.09
2023-08-07T10:48:11.524Z,20.90
2023-08-07T10:49:11.471Z,20.84
2023-08-07T10:50:11.494Z,20.84
2023-08-07T10:51:11.431Z,21.05
2023-08-07T10:52:11.438Z,21.18
2023-08-07T10:53:11.371Z,21.24
2023-08-07T10:54:12.047Z,21.48
2023-08-07T10:55:13.102Z,21.52
2023-08-07T10:56:11.368Z,21.51
2023-08-07T10:57:11.309Z,21.48
2023-08-07T10:58:11.286Z,21.52
2023-08-07T10:59:11.232Z,21.66
2023-08-07T11:00:11.271Z,21.73
2023-08-07T11:01:11.227Z,21.76
2023-08-07T11:02:12.833Z,21.73
2023-08-07T11:03:11.148Z,21.62
2023-08-07T11:04:11.130Z,21.42
2023-08-07T11:05:12.076Z,21.35
2023-08-07T11:06:11.658Z,21.25
2023-08-07T11:07:11.158Z,21.21
2023-08-07T11:08:11.041Z,21.18
2023-08-07T11:09:11.037Z,20.99
2023-08-07T11:10:11.025Z,20.88
2023-08-07T11:11:10.956Z,20.75
2023-08-07T11:12:10.938Z,20.74
2023-08-07T11:13:10.914Z,20.65
2023-08-07T11:14:12.064Z,20.50
2023-08-07T11:15:10.806Z,20.25
2023-08-07T11:16:10.794Z,20.07
2023-08-07T11:17:10.758Z,19.84
2023-08-07T11:18:10.722Z,19.79
2023-08-07T11:19:10.774Z,19.77
2023-08-07T11:20:10.669Z,19.67
2023-08-07T11:21:10.652Z,19.73
2023-08-07T11:22:10.618Z,19.95
2023-08-07T11:23:10.600Z,20.28
2023-08-07T11:24:10.668Z,20.60
2023-08-07T11:25:10.604Z,20.81
2023-08-07T11:26:10.508Z,20.81
2023-08-07T11:27:10.494Z,20.90
2023-08-07T11:28:10.462Z,20.95
2023-08-07T11:29:10.551Z,21.02
2023-08-07T11:30:10.407Z,21.06
2023-08-07T11:31:14.593Z,21.17
2023-08-07T11:32:11.757Z,21.33
2023-08-07T11:33:10.338Z,21.55
2023-08-07T11:34:10.303Z,21.55
2023-08-07T11:35:10.282Z,21.64
2023-08-07T11:36:10.256Z,21.76
2023-08-07T11:37:10.309Z,21.82
2023-08-07T11:38:10.266Z,21.73
2023-08-07T11:39:10.179Z,21.54
2023-08-07T11:40:10.149Z,21.35
2023-08-07T11:41:10.137Z,21.21
2023-08-07T11:42:10.096Z,20.92
2023-08-07T11:43:10.150Z,20.66
2023-08-07T11:44:10.079Z,20.55
2023-08-07T11:45:10.053Z,20.47
2023-08-07T11:46:10.056Z,20.56
2023-08-07T11:47:10.034Z,20.70
2023-08-07T11:48:09.950Z,20.80
2023-08-07T11:49:09.922Z,21.06
2023-08-07T11:50:09.908Z,21.21
2023-08-07T11:51:09.865Z,21.33
2023-08-07T11:52:09.913Z,21.43
2023-08-07T11:53:09.825Z,21.57
2023-08-07T11:54:09.802Z,21.61
2023-08-07T11:55:09.789Z,21.70
2023-08-07T11:56:09.869Z,21.70
2023-08-07T11:57:09.778Z,21.88
2023-08-07T11:58:09.682Z,22.06
2023-08-07T11:59:09.663Z,22.11
2023-08-07T12:00:09.643Z,22.18
2023-08-07T12:01:09.686Z,22.48
2023-08-07T12:02:09.580Z,22.65
2023-08-07T12:03:09.632Z,22.80
2023-08-07T12:04:09.825Z,22.83
2023-08-07T12:05:09.507Z,22.91
2023-08-07T12:06:09.508Z,22.94
2023-08-07T12:07:09.455Z,22.78
2023-08-07T12:08:09.422Z,22.59
2023-08-07T12:09:09.462Z,22.57
2023-08-07T12:10:09.374Z,22.50
2023-08-07T12:11:09.354Z,22.44
2023-08-07T12:12:09.403Z,22.50
2023-08-07T12:13:09.312Z,22.53
2023-08-07T12:14:09.330Z,22.59
2023-08-07T12:15:09.253Z,22.70
2023-08-07T12:16:09.285Z,22.36
2023-08-07T12:17:09.216Z,22.13
2023-08-07T12:18:09.193Z,22.00
2023-08-07T12:19:09.153Z,21.92
2023-08-07T12:20:09.177Z,21.85
2023-08-07T12:21:09.108Z,21.88
2023-08-07T12:22:09.075Z,21.85
2023-08-07T12:23:11.081Z,21.96
2023-08-07T12:24:09.693Z,22.04
2023-08-07T12:25:09.164Z,22.15
2023-08-07T12:26:09.047Z,22.39
2023-08-07T12:27:08.957Z,22.43
2023-08-07T12:28:08.961Z,22.44
2023-08-07T12:29:08.898Z,22.54
2023-08-07T12:30:08.883Z,22.54
2023-08-07T12:31:08.887Z,22.70
2023-08-07T12:32:08.878Z,22.51
2023-08-07T12:33:08.802Z,22.50
2023-08-07T12:36:20.314Z,22.65
2023-08-07T12:37:08.694Z,22.51
2023-08-07T12:38:08.717Z,22.44
2023-08-07T12:39:08.649Z,22.35
2023-08-07T12:41:44.743Z,22.72
2023-08-07T12:43:08.544Z,23.06
2023-08-07T12:44:08.654Z,23.12
2023-08-07T12:45:08.526Z,23.13
2023-08-07T12:47:09.222Z,23.31
2023-08-07T12:48:08.607Z,23.62
2023-08-07T12:49:08.399Z,23.76
2023-08-07T12:50:08.371Z,23.74
2023-08-07T12:51:08.376Z,23.65
2023-08-07T12:52:09.990Z,23.65
2023-08-07T12:53:08.298Z,23.61
2023-08-07T12:54:08.269Z,23.65
2023-08-07T12:55:08.250Z,23.86
2023-08-07T12:56:08.224Z,23.66
2023-08-07T12:57:08.258Z,23.63